Aeroporto :
LOGIN :

Iscrizione | Disclaimer

   EN    FR    IT 

 










Sommario :    VFR   VFR Marginale   IFR   IFR Intensivo   IFR Molto Intensivo
Visibilità : 
Base nubi : 
>= 8 km
>= 3000ft
5 / 8 km
1000 / 3000 ft
1500m / 5 km
500 / 1000 ft
800 / 1500m
200 / 500 ft
< 800m
< 200 ft
Simboli :   Temporali  Nebbia  Neve Forte  Precipitazioni Forti  Vento > 20 kt
SIGMETs :   Varie  Temporali  Ghiacco  Turbolenza  Onda orograficha  Ceneri Vulcaniche






- Altitudine del aeroporto : 183 ft
- Codice IATA : HAJ


EDDV - Hanover/Langenhagen Int.

ULTIMO METAR :
  • 190350Z AUTO 30004KT 5000 -RA BR BKN005 BKN045 14/14 Q1014 TEMPO 4500 RA SCT005 BKN040

METARs OBSOLETI :
  • 190320Z AUTO 30004KT 5000 -RA BR SCT005 BKN044 14/14 Q1013
  • 190250Z AUTO 31003KT 7000 -RA FEW005 BKN041 OVC048 14/14 Q1013
  • 190220Z AUTO 30004KT 240V320 6000 -RADZ FEW005 BKN028 OVC035 14/14 Q1013
  • 190150Z AUTO 30004KT 6000 -RA FEW005 BKN027 OVC034 14/14 Q1013
  • 190120Z AUTO 30005KT 270V330 7000 -RA BKN004 BKN007 OVC029 14/14 Q1013
  • 190050Z AUTO 31005KT 7000 -RADZ SCT005 BKN017 OVC025 14/14 Q1013
  • 190020Z AUTO 30004KT 6000 -RA BKN004 BKN012 OVC029 14/14 Q1013
  • 182350Z AUTO 30004KT 9000 -RA FEW004 BKN009 BKN030 14/14 Q1013
  • 182320Z AUTO 33003KT 9999 -RA SCT030 14/14 Q1013

TAF TAF EDDV
Valido dal 19 a 00 ore il 20 a 00 ore UTC


182300Z 1900/1924 33006KT 9999 SCT007 BKN015
TEMPO 1900/1907 BKN005
PROB30
TEMPO 1900/1906 BKN004
TEMPO 1907/1910 BKN010
BECMG 1922/1924 VRB02KT



MetMap, La meteo Aeronautica in un colpo d'occhio ! - Copyright ORBIFLY Dicembre 2007 - Disclaimer

ORBIFLY MET'MAP TEAM :

Programmazione e sviluppo : Alexandra Zaïnal
Concezione : Baudouin d'Aumeries
Supporto tecnico e logistico : Manuel Goepfert
Aiuto : Marc-Olivier Méhu
Aiuto per la traduzione : Arnaldo La Scala




FONTI E CREDITI :

   NOAA